createdAt,value
2022-08-03T00:00:25.934Z,21.60
2022-08-03T00:04:34.106Z,21.56
2022-08-03T00:08:40.225Z,21.52
2022-08-03T00:12:42.209Z,21.46
2022-08-03T00:16:43.823Z,21.42
2022-08-03T00:20:45.470Z,21.40
2022-08-03T00:24:47.069Z,21.37
2022-08-03T00:28:49.276Z,21.33
2022-08-03T00:32:50.898Z,21.29
2022-08-03T00:36:52.534Z,21.28
2022-08-03T00:40:54.209Z,21.25
2022-08-03T00:44:55.800Z,21.25
2022-08-03T00:48:57.450Z,21.23
2022-08-03T00:52:59.945Z,21.23
2022-08-03T00:57:02.043Z,21.18
2022-08-03T01:01:07.129Z,21.14
2022-08-03T01:05:10.767Z,21.07
2022-08-03T01:09:16.244Z,21.04
2022-08-03T01:14:01.313Z,21.01
2022-08-03T01:18:06.159Z,21.00
2022-08-03T01:22:26.621Z,21.01
2022-08-03T01:26:54.615Z,21.03
2022-08-03T01:31:01.566Z,21.05
2022-08-03T01:35:09.395Z,21.07
2022-08-03T01:39:11.981Z,21.09
2022-08-03T01:47:40.502Z,21.17
2022-08-03T01:51:57.760Z,21.20
2022-08-03T01:56:06.223Z,21.19
2022-08-03T02:00:12.094Z,21.18
2022-08-03T02:04:17.532Z,21.14
2022-08-03T02:08:24.202Z,21.13
2022-08-03T02:12:27.722Z,21.11
2022-08-03T02:16:31.550Z,21.10
2022-08-03T02:20:36.394Z,21.07
2022-08-03T02:24:38.501Z,21.07
2022-08-03T02:28:43.274Z,21.07
2022-08-03T02:32:51.608Z,21.06
2022-08-03T02:36:56.190Z,21.06
2022-08-03T02:40:58.903Z,21.04
2022-08-03T02:45:02.967Z,20.99
2022-08-03T02:49:41.156Z,20.96
2022-08-03T02:53:29.945Z,20.94
2022-08-03T03:01:52.128Z,20.95
2022-08-03T03:05:57.745Z,20.89
2022-08-03T03:10:03.020Z,20.78
2022-08-03T03:14:05.648Z,20.56
2022-08-03T03:18:11.987Z,20.34
2022-08-03T03:22:15.799Z,20.21
2022-08-03T03:26:18.270Z,20.06
2022-08-03T03:30:19.923Z,19.95
2022-08-03T03:34:21.691Z,19.84
2022-08-03T03:38:25.893Z,19.76
2022-08-03T03:42:27.452Z,19.68
2022-08-03T03:46:29.801Z,19.59
2022-08-03T03:50:32.752Z,19.45
2022-08-03T03:54:43.874Z,19.35
2022-08-03T03:58:45.497Z,19.29
2022-08-03T04:02:47.395Z,19.28
2022-08-03T04:07:07.727Z,19.28
2022-08-03T04:11:16.815Z,19.28
2022-08-03T04:15:23.402Z,19.28
2022-08-03T04:19:35.714Z,19.28
2022-08-03T04:23:44.855Z,19.28
2022-08-03T04:28:19.727Z,19.29
2022-08-03T04:32:12.409Z,19.27
2022-08-03T04:36:17.842Z,19.25
2022-08-03T04:40:29.808Z,19.24
2022-08-03T04:44:37.675Z,19.27
2022-08-03T04:48:42.365Z,19.31
2022-08-03T04:52:46.352Z,19.33
2022-08-03T04:56:48.142Z,19.37
2022-08-03T05:00:51.420Z,19.40
2022-08-03T05:04:53.100Z,19.46
2022-08-03T05:08:57.672Z,19.51
2022-08-03T05:12:59.315Z,19.58
2022-08-03T05:17:00.917Z,19.66
2022-08-03T05:21:02.537Z,19.74
2022-08-03T05:25:06.013Z,19.79
2022-08-03T05:29:07.917Z,19.84
2022-08-03T05:33:09.539Z,19.92
2022-08-03T05:37:11.705Z,19.99
2022-08-03T05:41:21.125Z,20.07
2022-08-03T05:45:28.233Z,20.16
2022-08-03T05:49:30.889Z,20.23
2022-08-03T05:53:35.002Z,20.33
2022-08-03T05:57:37.390Z,20.40
2022-08-03T06:01:39.493Z,20.49
2022-08-03T06:05:43.311Z,20.62
2022-08-03T06:10:35.941Z,20.74
2022-08-03T06:14:24.800Z,20.90
2022-08-03T06:18:26.523Z,21.09
2022-08-03T06:22:28.206Z,21.32
2022-08-03T06:26:29.958Z,21.56
2022-08-03T06:30:31.844Z,21.78
2022-08-03T06:34:35.749Z,22.00
2022-08-03T06:38:37.524Z,22.22
2022-08-03T06:42:39.369Z,22.48
2022-08-03T06:46:41.577Z,22.74
2022-08-03T06:50:44.457Z,23.02
2022-08-03T06:54:46.256Z,23.34
2022-08-03T06:58:48.198Z,23.60
2022-08-03T07:02:53.608Z,23.92
2022-08-03T07:06:58.629Z,24.24
2022-08-03T07:11:00.347Z,24.56
2022-08-03T07:15:03.343Z,24.86
2022-08-03T07:19:05.207Z,25.18
2022-08-03T07:23:06.985Z,25.50
2022-08-03T07:27:09.904Z,25.83
2022-08-03T07:31:11.488Z,26.20
2022-08-03T07:35:24.886Z,26.52
2022-08-03T07:39:26.970Z,26.87
2022-08-03T07:43:28.723Z,27.13
2022-08-03T07:47:34.848Z,27.31
2022-08-03T07:51:37.784Z,27.51
2022-08-03T07:55:39.404Z,27.68
2022-08-03T07:59:57.191Z,27.90
2022-08-03T08:04:02.617Z,28.28
2022-08-03T08:08:05.431Z,28.46
2022-08-03T08:12:15.353Z,28.67
2022-08-03T08:16:18.649Z,28.90
2022-08-03T08:20:30.501Z,29.10
2022-08-03T08:24:34.094Z,29.18
2022-08-03T08:28:37.792Z,29.44
2022-08-03T08:32:39.520Z,29.69
2022-08-03T08:36:41.101Z,29.92
2022-08-03T08:40:42.968Z,30.13
2022-08-03T08:44:44.593Z,30.24
2022-08-03T08:48:49.684Z,30.29
2022-08-03T08:52:53.857Z,30.45
2022-08-03T08:56:57.448Z,30.58
2022-08-03T09:00:59.334Z,30.78
2022-08-03T09:05:06.930Z,31.01
2022-08-03T09:09:09.048Z,31.23
2022-08-03T09:13:34.028Z,31.51
2022-08-03T09:17:41.775Z,31.58
2022-08-03T09:21:43.368Z,31.52
2022-08-03T09:25:46.172Z,31.61
2022-08-03T09:29:49.804Z,31.76
2022-08-03T09:33:54.734Z,32.09
2022-08-03T09:38:12.702Z,32.14
2022-08-03T09:42:19.139Z,32.19
2022-08-03T09:46:26.018Z,32.34
2022-08-03T09:50:28.120Z,32.44
2022-08-03T09:54:31.806Z,32.42
2022-08-03T09:58:33.383Z,32.77
2022-08-03T10:02:35.076Z,32.89
2022-08-03T10:06:36.788Z,32.98
2022-08-03T10:10:44.002Z,33.46
2022-08-03T10:14:47.075Z,33.56
2022-08-03T10:18:48.697Z,33.37
2022-08-03T10:22:50.675Z,33.64
2022-08-03T10:26:57.063Z,34.16
2022-08-03T10:30:58.791Z,34.40
2022-08-03T10:35:19.730Z,34.54
2022-08-03T10:39:23.076Z,34.76
2022-08-03T10:43:36.397Z,34.69
2022-08-03T10:47:38.250Z,34.73
2022-08-03T10:51:41.119Z,34.73
2022-08-03T10:56:03.818Z,34.69
2022-08-03T11:00:08.292Z,34.58
2022-08-03T11:04:21.476Z,34.97
2022-08-03T11:08:28.484Z,34.92
2022-08-03T11:12:33.111Z,35.20
2022-08-03T11:16:39.374Z,35.55
2022-08-03T11:20:52.348Z,35.70
2022-08-03T11:24:54.456Z,35.69
2022-08-03T11:29:29.687Z,35.74
2022-08-03T11:33:31.923Z,35.81
2022-08-03T11:37:33.553Z,35.97
2022-08-03T11:41:44.831Z,36.19
2022-08-03T11:46:04.208Z,36.50
2022-08-03T11:50:06.366Z,36.95
2022-08-03T11:54:09.517Z,37.38
2022-08-03T11:59:09.347Z,38.12
2022-08-03T12:02:58.129Z,38.65
2022-08-03T12:07:01.191Z,39.19
2022-08-03T12:11:06.763Z,39.59
2022-08-03T12:15:09.441Z,39.98
2022-08-03T12:19:11.079Z,40.41
2022-08-03T12:23:13.560Z,40.80
2022-08-03T12:27:25.712Z,40.87
2022-08-03T12:31:27.403Z,40.92
2022-08-03T12:35:29.513Z,40.91
2022-08-03T12:39:31.574Z,40.87
2022-08-03T12:43:36.664Z,41.03
2022-08-03T12:47:56.527Z,41.70
2022-08-03T12:52:05.321Z,42.44
2022-08-03T12:56:11.017Z,43.04
2022-08-03T13:00:21.652Z,43.05
2022-08-03T13:04:34.062Z,42.89
2022-08-03T13:08:35.749Z,42.61
2022-08-03T13:12:50.199Z,42.83
2022-08-03T13:16:52.044Z,43.63
2022-08-03T13:20:54.230Z,43.99
2022-08-03T13:25:01.314Z,44.07
2022-08-03T13:29:02.964Z,44.26
2022-08-03T13:33:06.026Z,44.53
2022-08-03T13:37:09.821Z,44.79
2022-08-03T13:41:15.460Z,45.31
2022-08-03T13:45:17.869Z,45.91
2022-08-03T13:49:19.717Z,45.90
2022-08-03T13:53:21.852Z,46.38
2022-08-03T13:58:04.434Z,46.39
2022-08-03T14:01:54.999Z,45.78
2022-08-03T14:05:56.820Z,46.12
2022-08-03T14:09:59.572Z,46.28
2022-08-03T14:14:01.895Z,46.29
2022-08-03T14:18:03.770Z,46.62
2022-08-03T14:22:06.864Z,46.90
2022-08-03T14:26:09.409Z,46.84
2022-08-03T14:30:11.842Z,45.98
2022-08-03T14:34:13.532Z,44.26
2022-08-03T14:38:15.625Z,42.63
2022-08-03T14:42:18.530Z,41.61
2022-08-03T14:46:20.893Z,40.18
2022-08-03T14:50:38.230Z,39.06
2022-08-03T14:54:42.634Z,40.25
2022-08-03T14:58:44.355Z,40.18
2022-08-03T15:02:46.000Z,39.00
2022-08-03T15:06:51.269Z,38.16
2022-08-03T15:10:55.570Z,37.89
2022-08-03T15:14:58.188Z,37.65
2022-08-03T15:19:00.923Z,37.40
2022-08-03T15:23:02.690Z,37.02
2022-08-03T15:27:11.105Z,36.59
2022-08-03T15:31:12.733Z,36.32
2022-08-03T15:35:23.822Z,36.12
2022-08-03T15:39:25.431Z,35.78
2022-08-03T15:43:27.054Z,36.00
2022-08-03T15:47:28.738Z,36.24
2022-08-03T15:51:30.603Z,37.07
2022-08-03T15:55:32.849Z,37.33
2022-08-03T15:59:35.027Z,37.32
2022-08-03T16:03:36.683Z,36.99
2022-08-03T16:08:02.702Z,36.68
2022-08-03T16:12:05.829Z,36.30
2022-08-03T16:16:20.044Z,36.01
2022-08-03T16:20:30.932Z,35.91
2022-08-03T16:24:36.115Z,35.74
2022-08-03T16:28:41.024Z,35.59
2022-08-03T16:32:45.679Z,35.37
2022-08-03T16:36:47.350Z,35.13
2022-08-03T16:40:52.418Z,34.97
2022-08-03T16:44:54.061Z,34.87
2022-08-03T16:48:55.605Z,34.77
2022-08-03T16:52:57.197Z,34.59
2022-08-03T16:56:58.703Z,34.52
2022-08-03T17:01:00.383Z,34.47
2022-08-03T17:05:12.633Z,34.44
2022-08-03T17:09:19.137Z,34.39
2022-08-03T17:13:22.781Z,34.32
2022-08-03T17:17:37.631Z,34.15
2022-08-03T17:21:56.544Z,34.12
2022-08-03T17:26:02.326Z,34.33
2022-08-03T17:30:09.373Z,34.37
2022-08-03T17:34:11.295Z,34.25
2022-08-03T17:38:15.778Z,34.13
2022-08-03T17:42:31.631Z,34.07
2022-08-03T17:46:34.794Z,33.96
2022-08-03T17:50:50.459Z,33.87
2022-08-03T17:55:54.823Z,33.77
2022-08-03T17:59:51.400Z,33.72
2022-08-03T18:04:00.079Z,33.73
2022-08-03T18:08:05.818Z,33.62
2022-08-03T18:12:14.647Z,33.45
2022-08-03T18:16:24.654Z,33.29
2022-08-03T18:20:33.173Z,33.07
2022-08-03T18:24:42.202Z,32.83
2022-08-03T18:28:44.591Z,32.66
2022-08-03T18:33:01.032Z,32.45
2022-08-03T18:37:08.709Z,32.16
2022-08-03T18:41:15.629Z,31.91
2022-08-03T18:45:55.737Z,31.67
2022-08-03T18:50:20.727Z,31.38
2022-08-03T18:55:07.296Z,31.06
2022-08-03T18:59:30.606Z,30.76
2022-08-03T19:08:03.547Z,30.26
2022-08-03T19:12:37.418Z,30.03
2022-08-03T19:16:47.275Z,29.81
2022-08-03T19:20:53.174Z,29.62
2022-08-03T19:24:59.001Z,29.45
2022-08-03T19:29:02.290Z,29.28
2022-08-03T19:33:05.663Z,29.18
2022-08-03T19:37:12.364Z,29.05
2022-08-03T19:41:18.936Z,28.92
2022-08-03T19:50:05.240Z,28.69
2022-08-03T19:54:12.891Z,28.59
2022-08-03T19:58:17.701Z,28.50
2022-08-03T20:02:29.782Z,28.40
2022-08-03T20:06:31.676Z,28.29
2022-08-03T20:10:34.745Z,28.22
2022-08-03T20:14:40.476Z,28.15
2022-08-03T20:18:43.275Z,28.06
2022-08-03T20:22:48.276Z,28.02
2022-08-03T20:26:53.502Z,27.95
2022-08-03T20:30:55.280Z,27.91
2022-08-03T20:34:57.040Z,27.87
2022-08-03T20:39:00.384Z,27.81
2022-08-03T20:43:02.082Z,27.72
2022-08-03T20:47:04.560Z,27.61
2022-08-03T20:51:20.151Z,27.53
2022-08-03T20:55:47.783Z,27.44
2022-08-03T20:59:56.537Z,27.38
2022-08-03T21:03:59.265Z,27.33
2022-08-03T21:08:07.539Z,27.29
2022-08-03T21:12:15.486Z,27.24
2022-08-03T21:13:02.897Z,28.80
2022-08-03T21:13:10.391Z,30.50
2022-08-03T21:16:21.807Z,27.20
2022-08-03T21:20:30.913Z,27.16
2022-08-03T21:24:33.529Z,27.13
2022-08-03T21:28:35.282Z,27.12
2022-08-03T21:32:40.417Z,27.10
2022-08-03T21:36:42.519Z,27.08
2022-08-03T21:40:44.836Z,27.06
2022-08-03T21:44:46.741Z,27.03
2022-08-03T21:50:05.026Z,26.99
2022-08-03T21:53:22.368Z,26.93
2022-08-03T21:57:25.754Z,26.91
2022-08-03T22:01:35.213Z,26.87
2022-08-03T22:05:43.729Z,26.84
2022-08-03T22:09:50.233Z,26.80
2022-08-03T22:13:53.455Z,26.78
2022-08-03T22:17:57.337Z,26.77
2022-08-03T22:22:01.550Z,26.77
2022-08-03T22:26:06.123Z,26.76
2022-08-03T22:30:13.727Z,26.74
2022-08-03T22:34:15.448Z,26.73
2022-08-03T22:38:18.563Z,26.73
2022-08-03T22:42:21.849Z,26.73
2022-08-03T22:46:26.705Z,26.74
2022-08-03T22:50:32.811Z,26.73
2022-08-03T22:54:35.797Z,26.73
2022-08-03T22:58:37.547Z,26.76
2022-08-03T23:02:42.156Z,26.75
2022-08-03T23:06:48.782Z,26.73
2022-08-03T23:10:51.973Z,26.73
2022-08-03T23:14:56.554Z,26.75
2022-08-03T23:18:59.631Z,26.73
2022-08-03T23:23:01.604Z,26.75
2022-08-03T23:27:04.826Z,26.74
2022-08-03T23:31:08.385Z,26.75
2022-08-03T23:36:18.704Z,26.77
2022-08-03T23:39:52.981Z,26.81
2022-08-03T23:43:56.012Z,26.84
2022-08-03T23:47:57.599Z,26.92
2022-08-03T23:52:10.136Z,26.95
2022-08-03T23:56:29.484Z,26.94
